Time;durP1;ratioP1;P1;durP2;ratioP2;P2;SDS_P1;SDS_P2;PMS_P1;PMS_P2;Temp;Humidity;BMP_temperature;BMP_pressure;BME280_temperature;BME280_humidity;BME280_pressure;Samples;Min_cycle;Max_cycle;Signal;HPM_P1;HPM_P2
2022/03/28 00:01:42;;;;;;;10.70;8.80;;;;;;;10.23;61.40;100500.84;5062344;28;20192;-66
2022/03/28 00:04:09;;;;;;;15.20;8.80;;;;;;;10.20;61.39;100498.34;5068627;28;20212;-66
2022/03/28 00:06:36;;;;;;;12.93;9.03;;;;;;;9.73;63.21;100490.22;5068451;28;20303;-67
2022/03/28 00:09:05;;;;;;;8.83;8.07;;;;;;;9.63;64.10;100494.59;5072570;28;20557;-66
2022/03/28 00:11:33;;;;;;;9.30;8.50;;;;;;;9.77;63.35;100497.88;5065616;28;20219;-66
2022/03/28 00:14:00;;;;;;;20.30;7.73;;;;;;;9.82;62.86;100500.41;5068066;28;20307;-66
2022/03/28 00:16:28;;;;;;;9.17;7.73;;;;;;;9.86;63.34;100487.53;5072351;28;20188;-66
2022/03/28 00:18:55;;;;;;;13.47;8.77;;;;;;;9.88;62.99;100485.84;5067974;28;20295;-66
2022/03/28 00:21:22;;;;;;;12.20;8.47;;;;;;;9.99;62.45;100485.69;5054417;28;20223;-66
2022/03/28 00:23:49;;;;;;;16.50;8.50;;;;;;;9.88;63.25;100490.09;5061525;28;20219;-66
2022/03/28 00:26:16;;;;;;;12.00;9.47;;;;;;;9.69;63.57;100493.72;5071684;28;20654;-66
2022/03/28 00:28:43;;;;;;;13.03;8.53;;;;;;;9.61;64.20;100498.03;5066392;28;20287;-66
2022/03/28 00:31:10;;;;;;;17.90;8.40;;;;;;;9.70;63.66;100510.75;5070378;28;20200;-65
2022/03/28 00:33:38;;;;;;;15.47;9.60;;;;;;;9.52;64.06;100493.00;5070150;28;20287;-66
2022/03/28 00:36:06;;;;;;;10.30;8.87;;;;;;;9.58;63.86;100510.84;5065419;28;20290;-66
2022/03/28 00:38:33;;;;;;;10.90;7.73;;;;;;;9.45;65.26;100510.97;5065020;28;20684;-66
2022/03/28 00:41:00;;;;;;;19.50;9.30;;;;;;;9.21;66.92;100511.13;5071784;28;20200;-66
2022/03/28 00:43:28;;;;;;;8.10;7.37;;;;;;;9.11;67.81;100519.72;5053634;28;20315;-66
2022/03/28 00:45:55;;;;;;;9.20;7.33;;;;;;;9.01;69.23;100513.00;5055605;28;20193;-66
2022/03/28 00:48:22;;;;;;;8.37;7.47;;;;;;;8.73;71.36;100521.66;5063809;28;20205;-66
2022/03/28 00:50:50;;;;;;;8.87;7.57;;;;;;;8.53;72.41;100498.72;5071752;28;20207;-66
2022/03/28 00:53:17;;;;;;;10.27;7.63;;;;;;;8.54;72.99;100527.69;5065370;28;20193;-66
2022/03/28 00:55:49;;;;;;;15.43;6.97;;;;;;;8.28;75.03;100528.66;5071753;28;20200;-66
2022/03/28 00:58:16;;;;;;;7.30;6.67;;;;;;;8.12;75.98;100521.84;5071551;28;20323;-66
2022/03/28 01:00:44;;;;;;;9.73;7.27;;;;;;;8.11;76.18;100509.91;5071701;28;20231;-66
2022/03/28 01:03:11;;;;;;;8.50;7.70;;;;;;;8.05;76.72;100504.84;5057971;28;20212;-66
2022/03/28 01:05:38;;;;;;;12.00;8.10;;;;;;;8.10;77.15;100520.16;5053133;28;20192;-65
2022/03/28 01:08:06;;;;;;;8.87;7.97;;;;;;;7.99;78.17;100520.16;5053684;28;20291;-66
2022/03/28 01:10:34;;;;;;;9.70;7.03;;;;;;;7.89;79.15;100518.47;5064709;28;20200;-68
2022/03/28 01:13:02;;;;;;;10.60;7.60;;;;;;;7.73;80.62;100521.91;5072080;28;20218;-66
2022/03/28 01:15:29;;;;;;;11.67;7.33;;;;;;;7.70;81.20;100516.81;5070463;28;20207;-66
2022/03/28 01:18:08;;;;;;;8.37;7.63;;;;;;;7.71;81.70;100521.06;5071449;28;20284;-66
2022/03/28 01:20:40;;;;;;;8.17;7.23;;;;;;;7.78;80.97;100525.31;5069829;28;20591;-66
2022/03/28 01:23:10;;;;;;;12.43;7.70;;;;;;;7.82;81.73;100521.88;5069774;28;20323;-66
2022/03/28 01:25:37;;;;;;;9.37;7.33;;;;;;;7.70;83.01;100522.75;5070592;28;20193;-65
2022/03/28 01:28:05;;;;;;;10.03;8.10;;;;;;;7.63;84.08;100522.75;5063247;28;20205;-66
2022/03/28 01:30:33;;;;;;;10.73;7.17;;;;;;;7.65;84.40;100518.53;5062143;28;20562;-66
2022/03/28 01:33:01;;;;;;;14.20;9.00;;;;;;;7.65;85.50;100519.38;5065154;28;20283;-66
2022/03/28 01:35:31;;;;;;;12.13;7.87;;;;;;;7.75;85.74;100515.97;5070936;28;20192;-66
2022/03/28 01:37:59;;;;;;;11.20;7.63;;;;;;;7.68;85.89;100513.41;5071042;28;20200;-66
2022/03/28 01:40:29;;;;;;;12.23;7.40;;;;;;;7.79;86.13;100527.00;5070916;28;20204;-66
2022/03/28 01:42:56;;;;;;;22.20;8.30;;;;;;;7.68;87.02;100513.41;5066248;28;20201;-66
2022/03/28 01:45:23;;;;;;;8.77;7.40;;;;;;;7.77;87.42;100536.38;5067625;28;20684;-66
2022/03/28 01:47:50;;;;;;;10.07;8.03;;;;;;;7.74;87.96;100532.13;5055072;28;20212;-65
2022/03/28 01:50:18;;;;;;;14.63;8.83;;;;;;;7.74;88.24;100524.47;5058661;28;20676;-66
2022/03/28 01:52:45;;;;;;;12.50;8.83;;;;;;;7.76;88.66;100527.00;5057808;28;20207;-66
2022/03/28 01:55:12;;;;;;;9.57;8.63;;;;;;;7.78;88.88;100525.31;5061262;28;20295;-66
2022/03/28 01:57:42;;;;;;;13.47;8.57;;;;;;;7.69;88.32;100515.13;5067697;28;20236;-66
2022/03/28 02:00:12;;;;;;;11.50;9.30;;;;;;;7.77;88.99;100533.81;5066833;28;20298;-66
2022/03/28 02:02:39;;;;;;;17.10;8.60;;;;;;;7.62;89.93;100505.75;5069459;28;20209;-67
2022/03/28 02:05:09;;;;;;;14.37;9.63;;;;;;;7.56;90.83;100513.44;5069026;28;20282;-66
2022/03/28 02:07:36;;;;;;;13.20;8.93;;;;;;;7.63;90.60;100522.75;5070820;28;20664;-66
2022/03/28 02:10:03;;;;;;;15.00;9.53;;;;;;;7.72;90.63;100533.00;5070233;28;20644;-65
2022/03/28 02:12:30;;;;;;;15.00;9.13;;;;;;;7.71;90.86;100529.56;5059725;28;20569;-65
2022/03/28 02:14:58;;;;;;;16.83;9.73;;;;;;;7.71;91.30;100537.22;5051056;28;20275;-65
2022/03/28 02:17:25;;;;;;;11.60;10.13;;;;;;;7.68;92.06;100538.94;5068502;28;20215;-65
2022/03/28 02:19:52;;;;;;;9.93;8.97;;;;;;;7.65;92.57;100539.78;5068742;28;20755;-66
2022/03/28 02:22:19;;;;;;;12.07;9.83;;;;;;;7.63;93.09;100538.06;5066660;28;20938;-66
2022/03/28 02:24:46;;;;;;;16.57;10.03;;;;;;;7.58;94.02;100550.00;5064567;28;20223;-66
2022/03/28 02:27:13;;;;;;;10.43;9.37;;;;;;;7.50;94.80;100549.13;5066011;28;20283;-66
2022/03/28 02:29:40;;;;;;;9.80;8.80;;;;;;;7.29;95.72;100520.22;5065654;28;20199;-66
2022/03/28 02:32:11;;;;;;;11.00;8.13;;;;;;;7.43;95.79;100547.44;5053647;28;20212;-66
2022/03/28 02:34:37;;;;;;;9.70;8.80;;;;;;;7.36;96.87;100552.53;5051654;28;20243;-66
2022/03/28 02:37:05;;;;;;;17.17;10.43;;;;;;;7.40;97.15;100554.22;5051530;28;20581;-66
2022/03/28 02:39:32;;;;;;;12.33;9.07;;;;;;;7.48;96.26;100550.81;5062121;28;20223;-66
2022/03/28 02:41:59;;;;;;;13.73;9.83;;;;;;;7.45;96.85;100555.94;5069543;28;20207;-66
2022/03/28 02:44:25;;;;;;;17.13;9.37;;;;;;;7.50;96.34;100549.13;5064848;28;20227;-65
2022/03/28 02:46:52;;;;;;;21.13;9.83;;;;;;;7.38;97.06;100561.03;5069016;28;20200;-66
2022/03/28 02:49:21;;;;;;;18.20;10.10;;;;;;;7.28;97.33;100549.13;5065790;28;20657;-66
2022/03/28 02:51:48;;;;;;;10.57;9.13;;;;;;;7.18;98.51;100547.38;5070491;28;20611;-66
2022/03/28 02:54:17;;;;;;;13.63;9.53;;;;;;;7.28;98.48;100561.88;5052625;28;20209;-66
2022/03/28 02:56:43;;;;;;;15.23;9.53;;;;;;;7.30;98.33;100561.88;5059335;28;20594;-66
2022/03/28 02:59:12;;;;;;;15.87;9.30;;;;;;;7.29;98.38;100566.13;5051377;28;20235;-67
2022/03/28 03:01:40;;;;;;;17.17;9.97;;;;;;;7.15;99.60;100551.63;5063325;28;20196;-66
2022/03/28 03:04:07;;;;;;;10.37;8.37;;;;;;;7.13;100.00;100569.50;5061893;28;20635;-66
2022/03/28 03:06:35;;;;;;;11.47;9.60;;;;;;;7.04;100.00;100574.56;5062463;28;20200;-66
2022/03/28 03:09:02;;;;;;;10.60;9.60;;;;;;;6.89;100.00;100571.97;5069333;28;20204;-66
2022/03/28 03:11:29;;;;;;;18.93;10.13;;;;;;;6.99;100.00;100571.16;5067078;28;20200;-66
2022/03/28 03:13:56;;;;;;;19.57;8.97;;;;;;;7.14;100.00;100576.28;5052411;28;20295;-65
2022/03/28 03:16:23;;;;;;;10.63;9.63;;;;;;;7.15;100.00;100588.19;5057577;28;20215;-66
2022/03/28 03:18:50;;;;;;;16.73;11.00;;;;;;;7.04;100.00;100579.69;5066637;28;20199;-66
2022/03/28 03:21:17;;;;;;;13.37;10.23;;;;;;;7.10;100.00;100596.69;5068988;28;20291;-66
2022/03/28 03:23:45;;;;;;;14.03;9.27;;;;;;;7.01;100.00;100597.47;5061947;28;20311;-66
2022/03/28 03:26:15;;;;;;;11.23;8.00;;;;;;;6.91;100.00;100593.22;5059092;28;20204;-66
2022/03/28 03:28:42;;;;;;;10.30;9.27;;;;;;;6.84;100.00;100601.69;5058477;28;20239;-66
2022/03/28 03:31:08;;;;;;;13.80;9.23;;;;;;;6.91;100.00;100600.88;5061314;28;20204;-66
2022/03/28 03:33:35;;;;;;;13.43;8.90;;;;;;;6.93;100.00;100600.88;5058960;28;20204;-65
2022/03/28 03:36:02;;;;;;;10.67;9.57;;;;;;;6.90;100.00;100604.25;5068622;28;20199;-66
2022/03/28 03:38:30;;;;;;;14.37;10.33;;;;;;;6.92;100.00;100612.75;5069950;28;20651;-66
2022/03/28 03:40:58;;;;;;;14.37;9.93;;;;;;;6.94;100.00;100612.78;5073409;28;20192;-66
2022/03/28 03:43:25;;;;;;;19.40;9.70;;;;;;;6.88;100.00;100593.22;5072776;28;20223;-65
2022/03/28 03:45:52;;;;;;;17.13;9.93;;;;;;;7.02;100.00;100611.09;5073383;28;20212;-65
2022/03/28 03:48:20;;;;;;;16.47;9.77;;;;;;;7.13;100.00;100620.50;5071448;28;20254;-65
2022/03/28 03:50:47;;;;;;;15.20;9.33;;;;;;;7.24;98.87;100623.91;5069161;28;20737;-65
2022/03/28 03:53:14;;;;;;;19.10;10.13;;;;;;;7.26;98.41;100635.00;5060248;28;20197;-65
2022/03/28 03:55:41;;;;;;;16.57;9.53;;;;;;;7.32;97.44;100627.34;5069337;28;20211;-65
2022/03/28 03:58:09;;;;;;;16.93;9.77;;;;;;;7.31;96.50;100632.44;5057200;28;20245;-67
2022/03/28 04:00:36;;;;;;;12.70;9.73;;;;;;;7.39;95.91;100638.41;5073053;28;20307;-66
2022/03/28 04:03:04;;;;;;;17.73;10.80;;;;;;;7.36;94.57;100648.63;5072746;28;20196;-66
2022/03/28 04:05:31;;;;;;;12.93;11.27;;;;;;;7.38;93.64;100652.88;5064927;28;20596;-66
2022/03/28 04:07:59;;;;;;;20.17;13.33;;;;;;;7.34;93.46;100656.25;5064846;28;20730;-66
2022/03/28 04:10:26;;;;;;;21.37;12.60;;;;;;;7.25;93.05;100660.47;5072413;28;20255;-66
2022/03/28 04:12:53;;;;;;;18.03;11.63;;;;;;;7.23;92.67;100662.19;5066008;28;20238;-65
2022/03/28 04:15:22;;;;;;;27.50;11.20;;;;;;;7.26;92.13;100670.69;5068429;28;20200;-66
2022/03/28 04:17:48;;;;;;;11.60;10.03;;;;;;;7.26;91.70;100663.03;5067804;28;20280;-66
2022/03/28 04:20:17;;;;;;;14.33;10.53;;;;;;;7.25;91.44;100666.44;5070748;28;20204;-66
2022/03/28 04:22:45;;;;;;;17.43;12.30;;;;;;;7.16;91.72;100663.00;5070053;28;20203;-66
2022/03/28 04:25:14;;;;;;;25.00;11.83;;;;;;;7.10;91.91;100661.28;5067765;28;20227;-66
2022/03/28 04:27:41;;;;;;;19.67;11.60;;;;;;;7.09;91.65;100662.13;5070334;28;20585;-66
2022/03/28 04:30:10;;;;;;;16.50;10.87;;;;;;;7.04;91.83;100668.91;5071624;28;20196;-65
2022/03/28 04:32:39;;;;;;;18.20;11.03;;;;;;;6.91;93.08;100659.50;5072090;28;20645;-66
2022/03/28 04:35:08;;;;;;;17.73;10.57;;;;;;;6.97;92.82;100674.81;5055521;28;20204;-66
2022/03/28 04:37:36;;;;;;;16.90;10.47;;;;;;;6.91;93.47;100677.34;5054768;28;20220;-66
2022/03/28 04:40:05;;;;;;;18.10;11.60;;;;;;;6.96;93.33;100687.53;5061296;28;20287;-67
2022/03/28 04:42:32;;;;;;;17.87;11.03;;;;;;;7.09;92.56;100690.16;5064110;28;20299;-66
2022/03/28 04:44:59;;;;;;;15.17;10.67;;;;;;;7.20;91.47;100688.53;5059480;28;20213;-67
2022/03/28 04:47:26;;;;;;;15.00;11.60;;;;;;;7.25;91.42;100691.94;5063423;28;20596;-65
2022/03/28 04:49:54;;;;;;;17.77;10.63;;;;;;;7.34;91.11;100691.09;5070831;28;20294;-66
2022/03/28 04:52:21;;;;;;;18.43;10.77;;;;;;;7.37;91.15;100697.06;5070852;28;20664;-66
2022/03/28 04:54:48;;;;;;;17.77;10.87;;;;;;;7.50;90.42;100702.22;5058810;28;20196;-66
2022/03/28 04:57:15;;;;;;;18.83;11.30;;;;;;;7.56;89.95;100692.03;5060752;28;20283;-66
2022/03/28 04:59:42;;;;;;;15.97;11.37;;;;;;;7.68;89.27;100702.28;5044842;28;20629;-66
2022/03/28 05:02:09;;;;;;;24.50;12.63;;;;;;;7.74;89.37;100705.69;5042523;28;20680;-66
2022/03/28 05:04:36;;;;;;;22.23;12.83;;;;;;;7.81;88.41;100706.56;5044475;28;20251;-66
2022/03/28 05:07:05;;;;;;;19.60;11.90;;;;;;;7.83;88.72;100709.97;5041244;28;20279;-66
2022/03/28 05:09:31;;;;;;;24.43;10.50;;;;;;;7.87;88.10;100707.44;5040444;28;20215;-67
2022/03/28 05:11:59;;;;;;;18.13;11.87;;;;;;;7.99;87.67;100709.13;5051478;28;20223;-66
2022/03/28 05:14:26;;;;;;;22.37;12.97;;;;;;;7.92;87.01;100695.50;5043023;28;20228;-66
2022/03/28 05:16:53;;;;;;;18.63;11.57;;;;;;;8.05;87.69;100709.13;5036202;28;20252;-66
2022/03/28 05:19:20;;;;;;;19.60;11.80;;;;;;;8.11;87.58;100710.88;5043293;28;20258;-66
2022/03/28 05:21:47;;;;;;;19.10;11.80;;;;;;;8.14;88.19;100709.13;5042770;28;20205;-66
2022/03/28 05:24:15;;;;;;;16.73;11.47;;;;;;;8.25;88.80;100712.56;5045158;28;20303;-66
2022/03/28 05:26:42;;;;;;;18.93;11.97;;;;;;;8.39;88.71;100704.94;5045605;28;20201;-66
2022/03/28 05:29:09;;;;;;;11.53;10.43;;;;;;;8.54;88.16;100709.16;5045700;28;20198;-66
2022/03/28 05:31:36;;;;;;;16.63;11.33;;;;;;;8.70;87.46;100710.84;5049728;28;20204;-66
2022/03/28 05:34:03;;;;;;;20.97;11.67;;;;;;;8.94;86.98;100715.91;5044098;28;20288;-66
2022/03/28 05:36:29;;;;;;;14.83;9.97;;;;;;;9.19;86.32;100712.44;5048255;28;20201;-66
2022/03/28 05:38:57;;;;;;;22.40;11.40;;;;;;;9.45;84.83;100715.72;5038422;28;20271;-65
2022/03/28 05:41:25;;;;;;;14.60;11.03;;;;;;;9.71;83.00;100722.41;5044033;28;20267;-66
2022/03/28 05:43:52;;;;;;;16.00;10.53;;;;;;;9.89;80.86;100724.88;5044871;28;20287;-66
2022/03/28 05:46:19;;;;;;;23.97;13.93;;;;;;;10.11;78.88;100723.03;5050569;28;20224;-66
2022/03/28 05:48:46;;;;;;;21.97;12.47;;;;;;;10.21;78.27;100725.53;5050449;28;20207;-66
2022/03/28 05:51:13;;;;;;;19.97;11.80;;;;;;;10.35;77.87;100708.34;5050554;28;20279;-67
2022/03/28 05:53:40;;;;;;;19.07;12.50;;;;;;;10.50;76.05;100718.44;5048507;28;20649;-66
2022/03/28 05:56:07;;;;;;;17.00;12.40;;;;;;;10.82;75.45;100732.72;5037726;28;20743;-66
2022/03/28 05:58:35;;;;;;;21.07;11.73;;;;;;;10.88;73.80;100733.50;5038776;28;20236;-66
2022/03/28 06:01:02;;;;;;;19.37;11.20;;;;;;;11.12;72.20;100729.78;5048586;28;20207;-66
2022/03/28 06:03:29;;;;;;;19.73;11.50;;;;;;;11.27;72.27;100732.22;5047364;28;20205;-66
2022/03/28 06:05:56;;;;;;;21.97;12.40;;;;;;;11.44;70.31;100725.13;5049657;28;20589;-66
2022/03/28 06:08:23;;;;;;;15.23;10.40;;;;;;;11.63;69.90;100727.47;5043193;28;20299;-66
2022/03/28 06:10:50;;;;;;;16.03;11.63;;;;;;;11.67;68.49;100719.69;5050447;28;20204;-66
2022/03/28 06:13:18;;;;;;;20.80;11.97;;;;;;;11.91;68.14;100728.81;5047418;28;20209;-66
2022/03/28 06:15:46;;;;;;;18.53;10.63;;;;;;;12.15;66.06;100727.63;5044986;28;20197;-66
2022/03/28 06:18:13;;;;;;;17.60;10.90;;;;;;;12.31;64.24;100719.63;5042733;28;20288;-67
2022/03/28 06:20:40;;;;;;;22.17;10.90;;;;;;;12.41;64.81;100725.47;5046002;28;20612;-66
2022/03/28 06:23:09;;;;;;;18.53;11.53;;;;;;;12.56;64.54;100730.38;5047544;28;20207;-67
2022/03/28 06:25:37;;;;;;;19.70;11.33;;;;;;;12.77;62.73;100732.56;5050075;28;20689;-66
2022/03/28 06:28:04;;;;;;;18.20;10.37;;;;;;;12.89;62.70;100726.34;5044171;28;20204;-66
2022/03/28 06:30:31;;;;;;;17.17;10.27;;;;;;;12.89;62.68;100729.75;5045638;28;20279;-66
2022/03/28 06:32:59;;;;;;;12.97;10.63;;;;;;;13.15;61.72;100731.84;5041005;28;20204;-67
2022/03/28 06:35:26;;;;;;;16.40;10.67;;;;;;;13.25;61.31;100729.97;5038843;28;20192;-67
2022/03/28 06:37:53;;;;;;;20.37;10.67;;;;;;;13.36;59.53;100726.31;5036929;28;20204;-67
2022/03/28 06:40:21;;;;;;;16.63;11.37;;;;;;;13.35;58.86;100734.91;5035816;28;20213;-68
2022/03/28 06:42:48;;;;;;;12.83;11.37;;;;;;;13.29;59.96;100729.88;5039802;28;20204;-68
2022/03/28 06:45:15;;;;;;;20.10;11.93;;;;;;;13.36;59.17;100736.59;5039351;28;20217;-68
2022/03/28 06:47:42;;;;;;;21.70;11.87;;;;;;;12.90;60.30;100728.88;5033492;28;20204;-67
2022/03/28 06:50:10;;;;;;;20.53;12.87;;;;;;;13.11;60.33;100730.25;5040762;28;20232;-65
2022/03/28 06:52:38;;;;;;;26.47;13.33;;;;;;;13.42;59.30;100722.75;5040158;28;20569;-68
2022/03/28 06:55:05;;;;;;;24.00;12.87;;;;;;;13.33;59.04;100725.50;5039994;28;20277;-68
2022/03/28 06:57:32;;;;;;;15.40;11.83;;;;;;;13.56;58.04;100724.16;5038000;28;20227;-68
2022/03/28 06:59:59;;;;;;;24.03;12.00;;;;;;;13.82;57.76;100717.59;5061721;28;20572;-68
2022/03/28 07:02:26;;;;;;;18.42;11.95;;;;;;;13.88;56.35;100720.88;5058514;28;20973;-62
2022/03/28 07:04:53;;;;;;;16.02;12.68;;;;;;;14.13;55.67;100721.16;5061745;28;20450;-62
2022/03/28 07:07:22;;;;;;;17.97;11.50;;;;;;;14.39;54.38;100711.09;5053588;28;20212;-62
2022/03/28 07:09:48;;;;;;;19.00;11.50;;;;;;;14.44;53.90;100710.97;5059130;28;20208;-62
2022/03/28 07:12:16;;;;;;;16.77;11.73;;;;;;;14.68;55.36;100716.34;5062715;28;20286;-62
2022/03/28 07:14:43;;;;;;;28.20;15.32;;;;;;;14.93;54.40;100713.09;5062157;28;20448;-66
2022/03/28 07:17:10;;;;;;;29.10;15.00;;;;;;;15.27;52.05;100710.44;5058255;28;20235;-65
2022/03/28 07:19:37;;;;;;;84.03;44.70;;;;;;;15.18;51.43;100714.16;5056015;28;20600;-66
2022/03/28 07:22:04;;;;;;;27.17;17.57;;;;;;;15.06;52.23;100702.41;5060977;28;20204;-67
2022/03/28 07:24:33;;;;;;;12.37;11.03;;;;;;;14.91;51.71;100710.59;5065438;28;20290;-66
2022/03/28 07:27:00;;;;;;;17.33;10.20;;;;;;;15.05;50.96;100715.38;5062653;28;20231;-65
2022/03/28 07:29:27;;;;;;;14.70;11.23;;;;;;;14.98;51.74;100711.28;5058993;28;20201;-66
2022/03/28 07:31:54;;;;;;;19.27;12.43;;;;;;;14.98;52.60;100716.44;5062123;28;20220;-67
2022/03/28 07:34:34;;;;;;;18.37;10.33;;;;;;;14.96;52.21;100711.28;5066509;28;20197;-66
2022/03/28 07:37:05;;;;;;;18.40;10.30;;;;;;;14.91;52.69;100704.56;5064188;28;20196;-66
2022/03/28 07:39:37;;;;;;;12.93;9.63;;;;;;;15.15;52.82;100706.50;5065173;28;20669;-66
2022/03/28 07:42:07;;;;;;;18.17;10.40;;;;;;;15.41;50.43;100708.34;5065129;28;20576;-66
2022/03/28 07:44:34;;;;;;;13.70;9.30;;;;;;;15.30;49.91;100700.03;5056599;28;20226;-66
2022/03/28 07:47:02;;;;;;;11.53;8.70;;;;;;;15.34;51.88;100701.66;5063778;28;20667;-66
2022/03/28 07:49:30;;;;;;;10.47;8.60;;;;;;;15.37;51.24;100702.41;5060794;28;20206;-66
2022/03/28 07:51:57;;;;;;;13.07;8.50;;;;;;;15.45;50.15;100695.25;5060711;28;20200;-65
2022/03/28 07:54:24;;;;;;;17.23;9.13;;;;;;;15.54;50.58;100689.84;5062237;28;20307;-65
2022/03/28 07:56:52;;;;;;;15.00;9.27;;;;;;;15.74;50.38;100692.69;5062218;28;20288;-65
2022/03/28 07:59:19;;;;;;;12.93;8.90;;;;;;;15.87;50.75;100692.28;5059123;28;20229;-65
2022/03/28 08:01:46;;;;;;;13.47;8.37;;;;;;;15.89;50.27;100686.22;5064976;28;20332;-64
2022/03/28 08:04:13;;;;;;;14.87;8.33;;;;;;;16.16;51.24;100679.28;5063249;28;20301;-65
2022/03/28 08:06:40;;;;;;;10.80;8.93;;;;;;;16.25;48.42;100690.16;5066607;28;20299;-65
2022/03/28 08:09:07;;;;;;;13.63;9.60;;;;;;;16.19;48.22;100684.34;5062787;28;20206;-65
2022/03/28 08:11:34;;;;;;;11.80;8.77;;;;;;;16.24;49.18;100682.47;5066387;28;20204;-66
2022/03/28 08:14:03;;;;;;;17.23;9.83;;;;;;;16.42;49.05;100681.84;5062659;28;20200;-64
2022/03/28 08:16:30;;;;;;;15.73;8.87;;;;;;;16.39;48.75;100675.94;5060957;28;20661;-67
2022/03/28 08:18:57;;;;;;;17.43;9.30;;;;;;;16.23;49.39;100665.25;5063994;28;20680;-65
2022/03/28 08:21:25;;;;;;;9.57;8.60;;;;;;;16.28;50.28;100668.53;5064159;28;20205;-65
2022/03/28 08:23:52;;;;;;;8.57;7.77;;;;;;;16.38;50.30;100662.13;5059962;28;20204;-66
2022/03/28 08:26:20;;;;;;;20.70;8.87;;;;;;;16.66;49.02;100660.34;5068094;28;20223;-66
2022/03/28 08:28:47;;;;;;;10.73;8.17;;;;;;;16.56;48.53;100638.25;5068067;28;20207;-67
2022/03/28 08:31:15;;;;;;;9.33;8.40;;;;;;;16.79;49.25;100655.56;5064536;28;20199;-67
2022/03/28 08:33:42;;;;;;;8.77;8.00;;;;;;;16.91;48.27;100642.19;5066795;28;20263;-69
2022/03/28 08:36:09;;;;;;;9.73;8.63;;;;;;;17.09;48.57;100643.25;5065259;28;20197;-65
2022/03/28 08:38:38;;;;;;;8.63;7.80;;;;;;;17.13;47.65;100644.81;5067820;28;20207;-66
2022/03/28 08:41:06;;;;;;;13.53;8.47;;;;;;;17.05;49.03;100632.16;5057519;28;20290;-65
2022/03/28 08:43:35;;;;;;;12.87;8.80;;;;;;;17.06;47.91;100638.19;5062286;28;20548;-66
2022/03/28 08:46:04;;;;;;;9.63;8.53;;;;;;;17.14;49.78;100623.19;5055650;28;20216;-66
2022/03/28 08:48:34;;;;;;;13.43;8.67;;;;;;;17.23;48.27;100609.88;5060248;28;20200;-66
2022/03/28 08:51:03;;;;;;;13.87;8.63;;;;;;;16.98;48.20;100619.47;5062439;28;20560;-66
2022/03/28 08:53:30;;;;;;;18.00;9.37;;;;;;;17.19;49.14;100616.06;5063662;28;20200;-67
2022/03/28 08:55:57;;;;;;;12.73;8.90;;;;;;;17.05;49.27;100610.59;5065247;28;20576;-66
2022/03/28 08:58:24;;;;;;;11.90;8.13;;;;;;;17.09;48.74;100601.81;5064563;28;20297;-66
2022/03/28 09:00:51;;;;;;;9.27;8.37;;;;;;;17.16;48.96;100604.09;5065143;28;20212;-66
2022/03/28 09:03:18;;;;;;;11.83;8.13;;;;;;;17.37;49.16;100601.59;5058680;28;20204;-66
2022/03/28 09:05:49;;;;;;;12.73;8.77;;;;;;;17.60;49.72;100591.19;5059307;28;20745;-66
2022/03/28 09:08:17;;;;;;;22.93;8.67;;;;;;;17.60;47.30;100594.63;5064642;28;20647;-66
2022/03/28 09:10:48;;;;;;;9.73;8.53;;;;;;;17.60;46.54;100589.44;5060482;28;20249;-66
2022/03/28 09:13:18;;;;;;;9.83;8.43;;;;;;;17.54;46.91;100589.66;5058874;28;20200;-65
2022/03/28 09:15:50;;;;;;;9.63;7.63;;;;;;;17.42;46.12;100577.16;5064326;28;20638;-66
2022/03/28 09:18:22;;;;;;;46.10;19.93;;;;;;;17.66;47.43;100584.00;5061957;28;20291;-65
2022/03/28 09:20:52;;;;;;;11.93;9.73;;;;;;;17.67;47.72;100570.13;5067255;28;20208;-66
2022/03/28 09:23:39;;;;;;;11.77;8.17;;;;;;;17.93;45.69;100568.22;5065074;28;20204;-65
2022/03/28 09:26:08;;;;;;;9.33;8.53;;;;;;;18.08;47.58;100567.56;5056524;28;20223;-66
2022/03/28 09:28:48;;;;;;;12.33;9.13;;;;;;;18.26;46.14;100564.19;5061230;28;20676;-66
2022/03/28 09:31:24;;;;;;;12.97;8.33;;;;;;;17.89;45.71;100532.94;5062122;28;20244;-67
2022/03/28 09:33:52;;;;;;;11.03;8.37;;;;;;;18.29;44.89;100561.44;5065953;28;20632;-66
2022/03/28 09:36:37;;;;;;;10.50;8.97;;;;;;;18.17;45.31;100559.38;5061069;28;20670;-66
2022/03/28 09:39:06;;;;;;;8.83;8.00;;;;;;;18.07;44.61;100533.00;5061809;28;20205;-66
2022/03/28 09:41:33;;;;;;;9.30;8.40;;;;;;;18.02;44.90;100536.69;5057425;28;20193;-66
2022/03/28 09:44:01;;;;;;;12.23;8.57;;;;;;;18.16;45.31;100539.53;5062343;28;20287;-67
2022/03/28 09:46:28;;;;;;;9.37;7.87;;;;;;;18.17;45.05;100528.25;5068269;28;20689;-66
2022/03/28 09:48:57;;;;;;;21.13;8.90;;;;;;;18.35;45.21;100537.84;5063257;28;20685;-66
2022/03/28 09:51:29;;;;;;;10.23;9.37;;;;;;;18.29;44.41;100530.28;5058364;28;20211;-66
2022/03/28 09:53:57;;;;;;;9.33;8.43;;;;;;;18.42;45.42;100523.66;5062741;28;20230;-66
2022/03/28 09:56:25;;;;;;;9.07;8.10;;;;;;;18.47;45.66;100532.09;5068751;28;20203;-66
2022/03/28 09:58:59;;;;;;;8.50;7.60;;;;;;;18.53;45.63;100521.47;5069611;28;20224;-66
2022/03/28 10:01:35;;;;;;;11.97;8.23;;;;;;;18.63;46.65;100507.16;5064325;28;20207;-66
2022/03/28 10:04:06;;;;;;;9.10;8.20;;;;;;;18.82;46.15;100508.00;5064764;28;20208;-66
2022/03/28 10:06:37;;;;;;;8.83;8.03;;;;;;;18.76;44.82;100510.03;5063680;28;20591;-66
2022/03/28 10:09:05;;;;;;;12.07;8.57;;;;;;;18.56;44.40;100505.75;5063692;28;20627;-66
2022/03/28 10:11:32;;;;;;;11.50;8.13;;;;;;;18.27;45.02;100499.22;5065078;28;20208;-66
2022/03/28 10:14:00;;;;;;;10.33;8.37;;;;;;;18.14;44.68;100490.28;5064434;28;20200;-66
2022/03/28 10:16:27;;;;;;;8.73;7.63;;;;;;;18.37;45.48;100484.09;5062953;28;20294;-66
2022/03/28 10:18:54;;;;;;;9.17;8.10;;;;;;;18.27;44.06;100480.22;5059840;28;20287;-66
2022/03/28 10:21:24;;;;;;;15.80;8.33;;;;;;;18.23;44.99;100481.25;5068735;28;20291;-66
2022/03/28 10:24:02;;;;;;;11.47;8.80;;;;;;;18.37;43.97;100463.31;5064881;28;20200;-65
2022/03/28 10:26:32;;;;;;;8.93;8.13;;;;;;;18.37;46.01;100460.72;5057736;28;20253;-66
2022/03/28 10:29:07;;;;;;;10.33;8.53;;;;;;;18.60;47.38;100450.16;5060287;28;20204;-66
2022/03/28 10:31:35;;;;;;;9.90;8.60;;;;;;;18.73;48.29;100455.63;5062556;28;20202;-66
2022/03/28 10:34:04;;;;;;;10.90;7.30;;;;;;;18.69;45.35;100448.88;5061645;28;20263;-65
2022/03/28 10:36:33;;;;;;;9.03;7.43;;;;;;;18.49;45.89;100439.38;5059524;28;20201;-66
2022/03/28 10:39:33;;;;;;;8.90;7.20;;;;;;;18.38;44.43;100439.03;5060304;28;20207;-65
2022/03/28 10:42:14;;;;;;;12.03;7.73;;;;;;;18.18;44.62;100421.78;5062165;28;20219;-66
2022/03/28 10:45:00;;;;;;;15.57;8.23;;;;;;;18.38;44.31;100418.28;5066587;28;20212;-67
2022/03/28 10:47:44;;;;;;;8.87;7.43;;;;;;;18.36;44.49;100414.88;5057068;28;20225;-66
2022/03/28 10:50:13;;;;;;;9.80;8.17;;;;;;;18.29;44.67;100410.88;5066178;28;20287;-66
2022/03/28 10:53:04;;;;;;;8.57;7.87;;;;;;;18.43;44.56;100403.31;5060726;28;20291;-67
2022/03/28 10:55:35;;;;;;;8.63;7.93;;;;;;;18.48;44.31;100406.53;5059875;28;20206;-66
2022/03/28 10:58:12;;;;;;;11.00;8.67;;;;;;;18.40;44.30;100390.47;5063943;28;20235;-66
2022/03/28 11:00:39;;;;;;;9.50;7.70;;;;;;;18.49;43.71;100387.44;5064941;28;20215;-66
2022/03/28 11:03:07;;;;;;;8.97;7.93;;;;;;;18.67;43.88;100394.41;5061870;28;20296;-67
2022/03/28 11:05:53;;;;;;;11.33;8.47;;;;;;;18.61;43.13;100389.50;5058502;28;20337;-66
2022/03/28 11:08:33;;;;;;;8.53;7.63;;;;;;;18.65;44.11;100380.66;5057130;28;20577;-66
2022/03/28 11:11:15;;;;;;;14.90;8.50;;;;;;;18.59;44.07;100375.75;5060104;28;20208;-67
2022/03/28 11:13:44;;;;;;;8.53;7.77;;;;;;;18.65;45.07;100367.66;5057927;28;20217;-66
2022/03/28 11:16:19;;;;;;;15.47;8.40;;;;;;;18.41;43.60;100366.22;5057999;28;20288;-67
2022/03/28 11:19:06;;;;;;;16.00;8.80;;;;;;;18.51;44.90;100371.84;5058912;28;20282;-67
2022/03/28 11:21:33;;;;;;;13.90;8.70;;;;;;;18.61;43.71;100360.91;5067209;28;20208;-67
2022/03/28 11:24:09;;;;;;;11.63;7.80;;;;;;;18.63;43.85;100361.72;5062985;28;20294;-66
2022/03/28 11:26:38;;;;;;;8.30;7.60;;;;;;;18.67;44.27;100347.66;5060229;28;20583;-67